Disclaimer

Please do not use the information listed here in-flight or in-navigation, as they are not provided to us by the airports but are provided by volunteers, so they might be outdated.

Search


Regions


Airport information page

Radio informations:
TWR/APP - 128.85 MHz
RDO - 126.9 MHz

Airport informations:
Latitude: 24° 51' 21.52" S
Longitude: 065° 29' 10.21" W
Elevation: 4088 feet - 1246 meters
Operating hours: Remarks
Operating agency: Civil government, landing fees and diplomatic clearance may be required
Timezone: UTC-3
Fuel: N/A

Runway information:
02/20 - 9843 x 148 feet< - >3000 x 45 meters
06/24 - 7874 x 98 feet< - >2400 x 30 meters

Recent METARs:
SASA 190800Z 00000KT 9999 FEW010 SCT100 10/09 Q1019
SASA 190900Z 00000KT 9999 SCT010 BKN100 11/10 Q1019
SASA 190900Z 00000KT 9999 SCT010 BKN100 11/10 Q1019

Airport on the map: